VCTRY47 KNTU-KNTU
Flight info
| Callsign | VCTRY47 |
|---|---|
| Flight time | 0h 44m |
| Altitude | 17000 |
| Route | CANOB KW36A HOBOH ZIBUT KW45A IMELL KW36A ZINEP ROWZO HUGEE HENIP WENID |
| Aircraft | F18/H-A/C |
Departure
| Time | 2026-04-27 07:28 |
|---|---|
| Airport | Oceana Naval Air Station (KNTU) |
Arrival
| Time | 2026-04-27 08:12 |
|---|---|
| Airport | Oceana Naval Air Station (KNTU) |
| Time | Latitude | Longitude | Altitude | Speed | Heading |
|---|---|---|---|---|---|
| 2026-04-27 06:31 | 36.81388 | -76.03442 | 30 ft | 0 kts | 45° |
| 2026-04-27 06:32 | 36.81393 | -76.03436 | 30 ft | 7 kts | 45° |
| 2026-04-27 06:32 | 36.81437 | -76.03452 | 30 ft | 14 kts | 312° |
| 2026-04-27 06:33 | 36.81448 | -76.03467 | 30 ft | 0 kts | 312° |
| 2026-04-27 06:33 | 36.81459 | -76.03481 | 30 ft | 14 kts | 312° |
| 2026-04-27 06:33 | 36.81506 | -76.03546 | 30 ft | 6 kts | 319° |
| 2026-04-27 06:34 | 36.81560 | -76.03610 | 30 ft | 12 kts | 312° |
| 2026-04-27 06:34 | 36.81584 | -76.03634 | 30 ft | 0 kts | 305° |
| 2026-04-27 06:34 | 36.81581 | -76.03653 | 30 ft | 10 kts | 224° |
| 2026-04-27 06:34 | 36.81497 | -76.03745 | 30 ft | 22 kts | 221° |
| 2026-04-27 06:35 | 36.81354 | -76.03905 | 30 ft | 28 kts | 223° |
| 2026-04-27 06:35 | 36.81242 | -76.04032 | 30 ft | 17 kts | 221° |
| 2026-04-27 06:35 | 36.81145 | -76.04140 | 30 ft | 24 kts | 222° |
| 2026-04-27 06:35 | 36.80987 | -76.04316 | 30 ft | 36 kts | 221° |
| 2026-04-27 06:36 | 36.80799 | -76.04528 | 30 ft | 40 kts | 221° |
| 2026-04-27 06:36 | 36.80618 | -76.04731 | 30 ft | 35 kts | 222° |
| 2026-04-27 06:36 | 36.80506 | -76.04860 | 30 ft | 4 kts | 253° |
| 2026-04-27 06:36 | 36.80529 | -76.04910 | 30 ft | 0 kts | 315° |
| 2026-04-27 07:26 | 36.80534 | -76.04915 | 30 ft | 8 kts | 315° |
| 2026-04-27 07:27 | 36.80602 | -76.04929 | 30 ft | 17 kts | 39° |
| 2026-04-27 07:27 | 36.80900 | -76.04595 | 30 ft | 138 kts | 42° |
| 2026-04-27 07:27 | 36.81974 | -76.03424 | 177 ft | 238 kts | 41° |
| 2026-04-27 07:27 | 36.83196 | -76.02079 | 546 ft | 235 kts | 43° |
| 2026-04-27 07:28 | 36.84044 | -76.00350 | 876 ft | 239 kts | 73° |
| 2026-04-27 07:28 | 36.83998 | -75.98271 | 1225 ft | 247 kts | 105° |
| 2026-04-27 07:28 | 36.83042 | -75.96469 | 1580 ft | 257 kts | 136° |
| 2026-04-27 07:28 | 36.81398 | -75.95471 | 1940 ft | 272 kts | 166° |
| 2026-04-27 07:29 | 36.79492 | -75.95276 | 2344 ft | 276 kts | 173° |
| 2026-04-27 07:29 | 36.77586 | -75.95122 | 2745 ft | 279 kts | 173° |
| 2026-04-27 07:29 | 36.75613 | -75.94962 | 3163 ft | 282 kts | 173° |
| 2026-04-27 07:29 | 36.73652 | -75.94804 | 3342 ft | 285 kts | 173° |
| 2026-04-27 07:30 | 36.71712 | -75.94649 | 3346 ft | 283 kts | 173° |
| 2026-04-27 07:30 | 36.69743 | -75.94491 | 3354 ft | 283 kts | 173° |
| 2026-04-27 07:30 | 36.67780 | -75.94335 | 3352 ft | 283 kts | 173° |
| 2026-04-27 07:30 | 36.65822 | -75.94179 | 3684 ft | 281 kts | 173° |
| 2026-04-27 07:31 | 36.63857 | -75.94025 | 4224 ft | 284 kts | 174° |
| 2026-04-27 07:31 | 36.61888 | -75.93874 | 4789 ft | 284 kts | 174° |
| 2026-04-27 07:31 | 36.59906 | -75.93724 | 5368 ft | 287 kts | 175° |
| 2026-04-27 07:31 | 36.57916 | -75.93575 | 5953 ft | 286 kts | 175° |
| 2026-04-27 07:32 | 36.55912 | -75.93427 | 6546 ft | 290 kts | 175° |
| 2026-04-27 07:32 | 36.53899 | -75.93279 | 7136 ft | 291 kts | 176° |
| 2026-04-27 07:32 | 36.51866 | -75.93129 | 7740 ft | 295 kts | 176° |
| 2026-04-27 07:32 | 36.49822 | -75.92980 | 8350 ft | 296 kts | 176° |
| 2026-04-27 07:33 | 36.47750 | -75.92830 | 8970 ft | 300 kts | 176° |
| 2026-04-27 07:33 | 36.45654 | -75.92679 | 9597 ft | 303 kts | 176° |
| 2026-04-27 07:33 | 36.43536 | -75.92526 | 10230 ft | 307 kts | 176° |
| 2026-04-27 07:33 | 36.41389 | -75.92370 | 10869 ft | 311 kts | 176° |
| 2026-04-27 07:34 | 36.39218 | -75.92212 | 11515 ft | 314 kts | 176° |
| 2026-04-27 07:34 | 36.37025 | -75.92054 | 12166 ft | 318 kts | 176° |
| 2026-04-27 07:34 | 36.34802 | -75.91892 | 12825 ft | 322 kts | 176° |
| 2026-04-27 07:34 | 36.32556 | -75.91729 | 13488 ft | 325 kts | 175° |
| 2026-04-27 07:35 | 36.30286 | -75.91564 | 14157 ft | 329 kts | 175° |
| 2026-04-27 07:35 | 36.27987 | -75.91397 | 14833 ft | 333 kts | 175° |
| 2026-04-27 07:35 | 36.25662 | -75.91223 | 15515 ft | 336 kts | 174° |
| 2026-04-27 07:35 | 36.23392 | -75.90626 | 16179 ft | 334 kts | 151° |
| 2026-04-27 07:36 | 36.21340 | -75.89266 | 16878 ft | 335 kts | 147° |
| 2026-04-27 07:36 | 36.19291 | -75.87861 | 16719 ft | 336 kts | 147° |
| 2026-04-27 07:36 | 36.17248 | -75.86462 | 16760 ft | 336 kts | 147° |
| 2026-04-27 07:36 | 36.15198 | -75.85060 | 16792 ft | 336 kts | 147° |
| 2026-04-27 07:37 | 36.13151 | -75.83664 | 16767 ft | 336 kts | 148° |
| 2026-04-27 07:37 | 36.11097 | -75.82265 | 16763 ft | 337 kts | 148° |
| 2026-04-27 07:37 | 36.09045 | -75.80870 | 16774 ft | 337 kts | 148° |
| 2026-04-27 07:37 | 36.06987 | -75.79473 | 16771 ft | 337 kts | 148° |
| 2026-04-27 07:38 | 36.04934 | -75.78078 | 16768 ft | 337 kts | 148° |
| 2026-04-27 07:38 | 36.02878 | -75.76685 | 16768 ft | 338 kts | 148° |
| 2026-04-27 07:38 | 36.00815 | -75.75293 | 16771 ft | 337 kts | 148° |
| 2026-04-27 07:38 | 35.98746 | -75.73932 | 16767 ft | 336 kts | 149° |
| 2026-04-27 07:39 | 35.96685 | -75.72572 | 16769 ft | 337 kts | 148° |
| 2026-04-27 07:39 | 35.94625 | -75.71195 | 16771 ft | 337 kts | 148° |
| 2026-04-27 07:39 | 35.93452 | -75.70416 | 16771 ft | 337 kts | 148° |
| 2026-04-27 07:39 | 35.93233 | -75.70272 | 16771 ft | 337 kts | 148° |
| 2026-04-27 07:40 | 35.92851 | -75.70020 | 16771 ft | 337 kts | 149° |
| 2026-04-27 07:40 | 35.91528 | -75.69179 | 16769 ft | 339 kts | 154° |
| 2026-04-27 07:40 | 35.89225 | -75.68563 | 16764 ft | 344 kts | 179° |
| 2026-04-27 07:40 | 35.86880 | -75.69162 | 16781 ft | 348 kts | 204° |
| 2026-04-27 07:41 | 35.84922 | -75.70871 | 16770 ft | 346 kts | 230° |
| 2026-04-27 07:41 | 35.83702 | -75.73381 | 16766 ft | 341 kts | 255° |
| 2026-04-27 07:41 | 35.83415 | -75.76228 | 16773 ft | 333 kts | 279° |
| 2026-04-27 07:41 | 35.84060 | -75.78911 | 16770 ft | 325 kts | 303° |
| 2026-04-27 07:42 | 35.85502 | -75.80974 | 16769 ft | 316 kts | 328° |
| 2026-04-27 07:42 | 35.87468 | -75.82038 | 16771 ft | 306 kts | 353° |
| 2026-04-27 07:42 | 35.89560 | -75.81889 | 16771 ft | 303 kts | 19° |
| 2026-04-27 07:42 | 35.91333 | -75.80603 | 16769 ft | 303 kts | 44° |
| 2026-04-27 07:43 | 35.92460 | -75.78413 | 16770 ft | 308 kts | 70° |
| 2026-04-27 07:43 | 35.92671 | -75.75775 | 16771 ft | 316 kts | 93° |
| 2026-04-27 07:43 | 35.92362 | -75.73080 | 16774 ft | 317 kts | 95° |
| 2026-04-27 07:43 | 35.92029 | -75.70390 | 16762 ft | 317 kts | 95° |
| 2026-04-27 07:44 | 35.91529 | -75.67735 | 16754 ft | 323 kts | 110° |
| 2026-04-27 07:44 | 35.90194 | -75.65483 | 16777 ft | 333 kts | 136° |
| 2026-04-27 07:44 | 35.88159 | -75.64081 | 16776 ft | 341 kts | 161° |
| 2026-04-27 07:44 | 35.85796 | -75.63820 | 16766 ft | 346 kts | 186° |
| 2026-04-27 07:45 | 35.83526 | -75.64765 | 16769 ft | 347 kts | 212° |
| 2026-04-27 07:45 | 35.81756 | -75.66753 | 16772 ft | 345 kts | 237° |
| 2026-04-27 07:45 | 35.80805 | -75.69408 | 16770 ft | 338 kts | 262° |
| 2026-04-27 07:45 | 35.80825 | -75.72252 | 16770 ft | 330 kts | 288° |
| 2026-04-27 07:46 | 35.81790 | -75.74748 | 16771 ft | 320 kts | 313° |
| 2026-04-27 07:46 | 35.83488 | -75.76432 | 16770 ft | 312 kts | 339° |
| 2026-04-27 07:46 | 35.85565 | -75.76994 | 16770 ft | 306 kts | 4° |
| 2026-04-27 07:46 | 35.87595 | -75.76341 | 16770 ft | 303 kts | 30° |
| 2026-04-27 07:47 | 35.89156 | -75.74619 | 16773 ft | 305 kts | 53° |
| 2026-04-27 07:47 | 35.90330 | -75.72432 | 16771 ft | 306 kts | 55° |
| 2026-04-27 07:47 | 35.91486 | -75.70225 | 16762 ft | 306 kts | 55° |
| 2026-04-27 07:47 | 35.92488 | -75.67916 | 16755 ft | 309 kts | 71° |
| 2026-04-27 07:48 | 35.92637 | -75.65256 | 16780 ft | 318 kts | 96° |
| 2026-04-27 07:48 | 35.91806 | -75.62707 | 16774 ft | 328 kts | 122° |
| 2026-04-27 07:48 | 35.90127 | -75.60776 | 16765 ft | 337 kts | 147° |
| 2026-04-27 07:48 | 35.87900 | -75.59853 | 16769 ft | 342 kts | 173° |
| 2026-04-27 07:49 | 35.85535 | -75.60130 | 16773 ft | 346 kts | 198° |
| 2026-04-27 07:49 | 35.83448 | -75.61565 | 16769 ft | 346 kts | 223° |
| 2026-04-27 07:49 | 35.82017 | -75.63901 | 16770 ft | 341 kts | 248° |
| 2026-04-27 07:49 | 35.81494 | -75.66700 | 16771 ft | 335 kts | 274° |
| 2026-04-27 07:50 | 35.81951 | -75.69449 | 16771 ft | 325 kts | 299° |
| 2026-04-27 07:50 | 35.83280 | -75.71633 | 16771 ft | 316 kts | 324° |
| 2026-04-27 07:50 | 35.85180 | -75.72892 | 16788 ft | 310 kts | 340° |
| 2026-04-27 07:50 | 35.86959 | -75.74417 | 16756 ft | 319 kts | 313° |
| 2026-04-27 07:51 | 35.87964 | -75.76877 | 16773 ft | 331 kts | 285° |
| 2026-04-27 07:51 | 35.87947 | -75.79730 | 16773 ft | 340 kts | 258° |
| 2026-04-27 07:51 | 35.86878 | -75.82327 | 16768 ft | 346 kts | 230° |
| 2026-04-27 07:51 | 35.85684 | -75.83629 | 16769 ft | 348 kts | 212° |
| 2026-04-27 07:52 | 35.82835 | -75.84966 | 16782 ft | 348 kts | 195° |
| 2026-04-27 07:52 | 35.80543 | -75.85382 | 16749 ft | 343 kts | 173° |
| 2026-04-27 07:52 | 35.78304 | -75.84542 | 16780 ft | 336 kts | 145° |
| 2026-04-27 07:52 | 35.76663 | -75.82633 | 16778 ft | 327 kts | 118° |
| 2026-04-27 07:53 | 35.75928 | -75.80029 | 16765 ft | 317 kts | 90° |
| 2026-04-27 07:53 | 35.76285 | -75.77421 | 16770 ft | 308 kts | 62° |
| 2026-04-27 07:53 | 35.77583 | -75.75426 | 16772 ft | 307 kts | 34° |
| 2026-04-27 07:53 | 35.79720 | -75.74048 | 16771 ft | 379 kts | 25° |
| 2026-04-27 07:54 | 35.82068 | -75.72708 | 16756 ft | 370 kts | 25° |
| 2026-04-27 07:54 | 35.84406 | -75.71373 | 16777 ft | 372 kts | 25° |
| 2026-04-27 07:54 | 35.86757 | -75.70025 | 16770 ft | 372 kts | 25° |
| 2026-04-27 07:54 | 35.89103 | -75.68677 | 16768 ft | 372 kts | 25° |
| 2026-04-27 07:55 | 35.91445 | -75.67329 | 16771 ft | 372 kts | 23° |
| 2026-04-27 07:55 | 35.93956 | -75.66644 | 16771 ft | 374 kts | 1° |
| 2026-04-27 07:55 | 35.96536 | -75.67120 | 16787 ft | 378 kts | 349° |
| 2026-04-27 07:55 | 35.99090 | -75.67825 | 16759 ft | 375 kts | 349° |
| 2026-04-27 07:56 | 36.01640 | -75.68532 | 16767 ft | 376 kts | 349° |
| 2026-04-27 07:56 | 36.04193 | -75.69239 | 16774 ft | 376 kts | 349° |
| 2026-04-27 07:56 | 36.06748 | -75.69949 | 16767 ft | 376 kts | 349° |
| 2026-04-27 07:56 | 36.09291 | -75.70667 | 16771 ft | 375 kts | 349° |
| 2026-04-27 07:57 | 36.11841 | -75.71389 | 16770 ft | 376 kts | 349° |
| 2026-04-27 07:57 | 36.14394 | -75.72111 | 16769 ft | 376 kts | 349° |
| 2026-04-27 07:57 | 36.16946 | -75.72834 | 16770 ft | 376 kts | 349° |
| 2026-04-27 07:57 | 36.19496 | -75.73556 | 16770 ft | 376 kts | 349° |
| 2026-04-27 07:58 | 36.21183 | -75.74034 | 16770 ft | 376 kts | 349° |
| 2026-04-27 07:58 | 36.23736 | -75.74757 | 16770 ft | 376 kts | 349° |
| 2026-04-27 07:58 | 36.26288 | -75.75478 | 16770 ft | 376 kts | 349° |
| 2026-04-27 07:58 | 36.28834 | -75.76197 | 16770 ft | 376 kts | 349° |
| 2026-04-27 07:59 | 36.31386 | -75.76919 | 16770 ft | 376 kts | 349° |
| 2026-04-27 07:59 | 36.36482 | -75.78356 | 16770 ft | 376 kts | 349° |
| 2026-04-27 07:59 | 36.39027 | -75.79073 | 16770 ft | 376 kts | 349° |
| 2026-04-27 08:00 | 36.41576 | -75.79791 | 16770 ft | 375 kts | 349° |
| 2026-04-27 08:00 | 36.44123 | -75.80506 | 16770 ft | 375 kts | 349° |
| 2026-04-27 08:00 | 36.46667 | -75.81220 | 16770 ft | 375 kts | 349° |
| 2026-04-27 08:00 | 36.49211 | -75.81933 | 16770 ft | 375 kts | 349° |
| 2026-04-27 08:01 | 36.51757 | -75.82645 | 16770 ft | 375 kts | 349° |
| 2026-04-27 08:01 | 36.53006 | -75.82993 | 16770 ft | 375 kts | 349° |
| 2026-04-27 08:01 | 36.54815 | -75.83498 | 16770 ft | 375 kts | 349° |
| 2026-04-27 08:01 | 36.57269 | -75.84181 | 16770 ft | 374 kts | 349° |
| 2026-04-27 08:02 | 36.59809 | -75.84886 | 16770 ft | 374 kts | 349° |
| 2026-04-27 08:02 | 36.62352 | -75.85591 | 16770 ft | 374 kts | 349° |
| 2026-04-27 08:02 | 36.64892 | -75.86293 | 16770 ft | 374 kts | 349° |
| 2026-04-27 08:02 | 36.67432 | -75.86994 | 16771 ft | 374 kts | 349° |
| 2026-04-27 08:03 | 36.69949 | -75.87841 | 16775 ft | 376 kts | 342° |
| 2026-04-27 08:03 | 36.72310 | -75.89235 | 16569 ft | 376 kts | 327° |
| 2026-04-27 08:03 | 36.73630 | -75.90643 | 16636 ft | 382 kts | 315° |
| 2026-04-27 08:03 | 36.73684 | -75.90715 | 16637 ft | 382 kts | 315° |
| 2026-04-27 08:04 | 36.74794 | -75.92632 | 16632 ft | 388 kts | 301° |
| 2026-04-27 08:04 | 36.75714 | -75.95812 | 16604 ft | 392 kts | 289° |
| 2026-04-27 08:04 | 36.76751 | -75.98911 | 16627 ft | 386 kts | 303° |
| 2026-04-27 08:04 | 36.78352 | -76.01566 | 16617 ft | 384 kts | 317° |
| 2026-04-27 08:05 | 36.80419 | -76.03625 | 16619 ft | 379 kts | 332° |
| 2026-04-27 08:05 | 36.82780 | -76.04940 | 16621 ft | 375 kts | 345° |
| 2026-04-27 08:05 | 36.85340 | -76.05468 | 16620 ft | 373 kts | 360° |
| 2026-04-27 08:05 | 36.87907 | -76.05161 | 16620 ft | 372 kts | 14° |
| 2026-04-27 08:06 | 36.90323 | -76.04038 | 16620 ft | 372 kts | 28° |
| 2026-04-27 08:06 | 36.92446 | -76.02150 | 16620 ft | 372 kts | 42° |
| 2026-04-27 08:06 | 36.93382 | -76.00896 | 16620 ft | 374 kts | 50° |
| 2026-04-27 08:06 | 36.94763 | -75.98120 | 16591 ft | 380 kts | 62° |
| 2026-04-27 08:07 | 36.95774 | -75.95084 | 15451 ft | 378 kts | 68° |
| 2026-04-27 08:07 | 36.96621 | -75.91889 | 14103 ft | 383 kts | 69° |
| 2026-04-27 08:07 | 36.96976 | -75.88633 | 12076 ft | 385 kts | 92° |
| 2026-04-27 08:07 | 36.96204 | -75.85365 | 9343 ft | 405 kts | 118° |
| 2026-04-27 08:08 | 36.94406 | -75.82712 | 7237 ft | 369 kts | 136° |
| 2026-04-27 08:08 | 36.92531 | -75.80970 | 5365 ft | 303 kts | 147° |
| 2026-04-27 08:08 | 36.90660 | -75.80482 | 3999 ft | 250 kts | 182° |
| 2026-04-27 08:08 | 36.89108 | -75.81087 | 3397 ft | 244 kts | 213° |
| 2026-04-27 08:09 | 36.87888 | -75.82575 | 3253 ft | 255 kts | 237° |
| 2026-04-27 08:09 | 36.87129 | -75.84948 | 2931 ft | 328 kts | 262° |
| 2026-04-27 08:09 | 36.87338 | -75.87781 | 2887 ft | 329 kts | 296° |
| 2026-04-27 08:09 | 36.88158 | -75.90339 | 2869 ft | 348 kts | 286° |
| 2026-04-27 08:10 | 36.88595 | -75.93310 | 2455 ft | 332 kts | 283° |
| 2026-04-27 08:10 | 36.88923 | -75.95968 | 2000 ft | 297 kts | 274° |
| 2026-04-27 08:10 | 36.88130 | -75.98259 | 1158 ft | 284 kts | 229° |
| 2026-04-27 08:10 | 36.86642 | -75.99787 | 532 ft | 284 kts | 212° |
| 2026-04-27 08:11 | 36.85076 | -76.00682 | 422 ft | 212 kts | 199° |
| 2026-04-27 08:11 | 36.83931 | -76.01291 | 239 ft | 154 kts | 208° |
| 2026-04-27 08:11 | 36.83121 | -76.02099 | 62 ft | 147 kts | 221° |
| 2026-04-27 08:11 | 36.82470 | -76.02838 | 30 ft | 69 kts | 222° |
| 2026-04-27 08:12 | 36.82300 | -76.03022 | 30 ft | 31 kts | 219° |
| 2026-04-27 08:12 | 36.82155 | -76.03184 | 30 ft | 21 kts | 222° |
| 2026-04-27 08:12 | 36.82077 | -76.03273 | 30 ft | 9 kts | 222° |
| 2026-04-27 08:12 | 36.82026 | -76.03330 | 30 ft | 23 kts | 222° |
| 2026-04-27 08:13 | 36.81900 | -76.03471 | 30 ft | 20 kts | 222° |
| 2026-04-27 08:13 | 36.81809 | -76.03573 | 30 ft | 15 kts | 221° |
| 2026-04-27 08:13 | 36.81737 | -76.03578 | 30 ft | 9 kts | 131° |
| 2026-04-27 08:13 | 36.81649 | -76.03452 | 30 ft | 18 kts | 131° |
| 2026-04-27 08:14 | 36.81599 | -76.03449 | 30 ft | 10 kts | 223° |
| 2026-04-27 08:14 | 36.81586 | -76.03463 | 30 ft | 0 kts | 222° |